Lyman, NE (69352)

2:03 PM MDT on October 01, 2014 (GMT -0600)
Torrington Municipal | Change Station
CLOSE
Current Station
Airport
Location: Torrington,
Elevation: 4206 ft
Nearby Weather Stations

Elev 4206 ft 42.06 °N, 104.15 °W | Updated 10 minutes ago

Partly Cloudy
Partly Cloudy
67 °F
Feels Like 67 °F
N
20
Wind Variable Wind from West
Gusts 30 mph

Today
High -- | Low -- °F
--% Chance of Precip.
Yesterday
High -- | Low -- °F
Precip. -- in
6:53 AM 6:37 PM
Waxing Crescent, 50% visible
Pressure 29.62 in
Visibility 10.0 miles
Clouds Few 6500 ft
Dew Point 39 °F
Humidity 36%
Rainfall 0.21 in
Snow Depth Not available.
UV 6 out of 12
Pollen 3.60 out of 12
Air Quality Not available.
Flu Activity Not available.
METAR KTOR 301953Z AUTO 26017G26KT 10SM FEW065 19/04 A2971 RMK AO2 PK WND 25034/1934 SLP030 T01940039

More Conditions Fewer Conditions

Pressure 29.62 in
Visibility 10.0 miles
Clouds Few 6500 ft
Dew Point 39 °F
Humidity 36%
Rainfall 0.21 in
Snow Depth Not available.
UV 6 out of 12
Pollen 3.60 out of 12
Air Quality Not available.
Flu Activity Not available.
METAR KTOR 301953Z AUTO 26017G26KT 10SM FEW065 19/04 A2971 RMK AO2 PK WND 25034/1934 SLP030 T01940039

More Conditions Fewer Conditions

10-Day Weather Forecast

Almanac

Astronomy

Oct. 01, 2014 Rise Set
Actual Time 6:53 AM MDT 6:37 PM MDT
Civil Twilight 6:25 AM MDT 7:05 PM MDT
Nautical Twilight 5:52 AM MDT 7:37 PM MDT
Astronomical Twilight 5:20 AM MDT 8:10 PM MDT
Moon 2:00 PM MDT No Moon Set
Length of Visible Light 12h 40m
Length of Day
11h 44m
Tomorrow will be 2m 48s shorter.
Waxing Crescent, 50% of the Moon is Illuminated
Today
Waxing Crescent
Oct 8
Full
Oct 15
Last Quarter
Oct 23
New
Oct 30
First Quarter

Today's Extremes

State Highs State Lows

Community

WunderPhotos

Upload Photos

1,758,021 photos uploaded!

WunderBlogs® & News

By Dr. Jeff Masters
Director of Meteorology, Weather Underground
By Kari Strenfel
Meteorologist, Weather Underground
By Christopher C. Burt
Weather Historian, Weather Underground
October 1, 2014
October 1, 2014
October 1, 2014

Nearby

Snow Depth

Station Depth Elevation
No new snow has been reported.

Earthquake Activity

City Distance Mag. Time & Date
No recent earthquake activity has been reported nearby.
Minimum magnitude displayed is 2.5.

Coastal Water Temperatures

Place Temperature
No Stations Reporting

Nearby Weather Stations